Shen Hang 935 — BXGY — position and weather

sailwx.info

Track history (hours):
 
Tides and Currents Weather Stations Pressure Air Temp Water Temp Dewpoint Dewpoint Depression Visibility Wind Speed Wind Dir Waves Ship Positions

Shen Hang 935

Last reported at 2014-Sep-21 03:03 UTC. Time now 2014-Sep-22 04:15 UTC.
Position N 22°19' E 114°08'.

Length 49 m; draft 2.6 m.

Type: Ship. MMSI: 412466550.

Date/timePositionNaut miles runAvg speedWind from/ knotsBaromVisibWave heightAir tempDewpointWater temp
2014-Sep-21 03:03N 22°19' E 114°08'2 2.4
2014-Sep-21 02:12N 22°18' E 114°09'4 5.9
2014-Sep-21 01:33N 22°17' E 114°14'17 1.0
2014-Sep-20 08:22N 22°34' E 114°15'17 0.9
2014-Sep-19 14:10N 22°18' E 114°08'55 5.4
2014-Sep-19 04:06N 23°01' E 113°31'4 7.9
2014-Sep-19 03:33N 23°04' E 113°29'2 1.8
2014-Sep-19 02:33N 23°06' E 113°27'0 0.1
2014-Sep-19 01:33N 23°06' E 113°27'0 0.2
2014-Sep-19 00:33N 23°05' E 113°27'0 0.0
2014-Sep-18 23:33N 23°05' E 113°27'0 0.0
2014-Sep-18 22:33N 23°05' E 113°27'0 0.0
2014-Sep-18 21:33N 23°05' E 113°27'0 0.2
2014-Sep-18 20:33N 23°06' E 113°27'0 0.0
2014-Sep-18 19:33N 23°06' E 113°27'0 0.0
2014-Sep-18 18:33N 23°06' E 113°27'0 0.0
2014-Sep-18 17:33N 23°06' E 113°27'0 0.0
2014-Sep-18 16:33N 23°06' E 113°27'0 0.0
2014-Sep-18 15:33N 23°06' E 113°27'0 0.1
2014-Sep-18 14:33N 23°06' E 113°27'0 0.5
2014-Sep-18 13:33N 23°05' E 113°27'0 0.0
2014-Sep-18 12:33N 23°05' E 113°27'0 0.0
2014-Sep-18 11:33N 23°05' E 113°27'0 0.0
2014-Sep-18 10:33N 23°05' E 113°27'0 0.0
2014-Sep-18 09:33N 23°05' E 113°27'0 0.0
2014-Sep-18 08:33N 23°05' E 113°27'0 0.0
2014-Sep-18 07:33N 23°05' E 113°27'0 0.0
2014-Sep-18 06:33N 23°05' E 113°27'0 0.0
2014-Sep-18 05:33N 23°05' E 113°27'0 0.0
2014-Sep-18 04:33N 23°05' E 113°27'0 0.0
2014-Sep-18 03:33N 23°05' E 113°27'0 0.1
2014-Sep-18 02:33N 23°05' E 113°27'5 0.3
2014-Sep-17 07:09N 23°03' E 113°31'0 0.1
2014-Sep-17 03:27N 23°03' E 113°31'0 0.0
2014-Sep-17 02:17N 23°03' E 113°31'1 0.1
2014-Sep-16 19:33N 23°02' E 113°31'41 6.5
2014-Sep-16 13:21N 22°27' E 113°52'18 0.7
2014-Sep-15 10:26N 22°18' E 114°09'17 2.9
2014-Sep-15 04:33N 22°34' E 114°15'0 0.0
2014-Sep-15 03:33N 22°34' E 114°15'0 0.0
2014-Sep-15 02:33N 22°34' E 114°15'0 0.0
2014-Sep-14 22:15N 22°34' E 114°15'17 1.5
2014-Sep-14 11:11N 22°17' E 114°13'4 0.1
2014-Sep-13 09:19N 22°18' E 114°09'4 5.5
2014-Sep-13 08:33N 22°17' E 114°14'17 3.3
2014-Sep-13 03:32N 22°34' E 114°15'0 0.0
2014-Sep-13 02:25N 22°34' E 114°15'0 0.0
2014-Sep-13 01:23N 22°34' E 114°15'0 0.0
2014-Sep-12 22:18N 22°34' E 114°15'17 2.8
2014-Sep-12 16:25N 22°17' E 114°13'  
Track history (hours):
 
Tides and Currents Weather Stations Pressure Air Temp Water Temp Dewpoint Dewpoint Depression Visibility Wind Speed Wind Dir Waves Ship Positions

Shen Hang 935

Last reported at 2014-Sep-21 03:03 UTC. Time now 2014-Sep-22 04:15 UTC.
Position N 22°19' E 114°08'.

Length 49 m; draft 2.6 m.

Type: Ship. MMSI: 412466550.

Date/timePositionNaut miles runAvg speedWind from/ knotsBaromVisibWave heightAir tempDewpointWater temp
2014-Sep-21 03:03N 22°19' E 114°08'2 2.4
2014-Sep-21 02:12N 22°18' E 114°09'4 5.9
2014-Sep-21 01:33N 22°17' E 114°14'17 1.0
2014-Sep-20 08:22N 22°34' E 114°15'17 0.9
2014-Sep-19 14:10N 22°18' E 114°08'55 5.4
2014-Sep-19 04:06N 23°01' E 113°31'4 7.9
2014-Sep-19 03:33N 23°04' E 113°29'2 1.8
2014-Sep-19 02:33N 23°06' E 113°27'0 0.1
2014-Sep-19 01:33N 23°06' E 113°27'0 0.2
2014-Sep-19 00:33N 23°05' E 113°27'0 0.0
2014-Sep-18 23:33N 23°05' E 113°27'0 0.0
2014-Sep-18 22:33N 23°05' E 113°27'0 0.0
2014-Sep-18 21:33N 23°05' E 113°27'0 0.2
2014-Sep-18 20:33N 23°06' E 113°27'0 0.0
2014-Sep-18 19:33N 23°06' E 113°27'0 0.0
2014-Sep-18 18:33N 23°06' E 113°27'0 0.0
2014-Sep-18 17:33N 23°06' E 113°27'0 0.0
2014-Sep-18 16:33N 23°06' E 113°27'0 0.0
2014-Sep-18 15:33N 23°06' E 113°27'0 0.1
2014-Sep-18 14:33N 23°06' E 113°27'0 0.5
2014-Sep-18 13:33N 23°05' E 113°27'0 0.0
2014-Sep-18 12:33N 23°05' E 113°27'0 0.0
2014-Sep-18 11:33N 23°05' E 113°27'0 0.0
2014-Sep-18 10:33N 23°05' E 113°27'0 0.0
2014-Sep-18 09:33N 23°05' E 113°27'0 0.0
2014-Sep-18 08:33N 23°05' E 113°27'0 0.0
2014-Sep-18 07:33N 23°05' E 113°27'0 0.0
2014-Sep-18 06:33N 23°05' E 113°27'0 0.0
2014-Sep-18 05:33N 23°05' E 113°27'0 0.0
2014-Sep-18 04:33N 23°05' E 113°27'0 0.0
2014-Sep-18 03:33N 23°05' E 113°27'0 0.1
2014-Sep-18 02:33N 23°05' E 113°27'5 0.3
2014-Sep-17 07:09N 23°03' E 113°31'0 0.1
2014-Sep-17 03:27N 23°03' E 113°31'0 0.0
2014-Sep-17 02:17N 23°03' E 113°31'1 0.1
2014-Sep-16 19:33N 23°02' E 113°31'41 6.5
2014-Sep-16 13:21N 22°27' E 113°52'18 0.7
2014-Sep-15 10:26N 22°18' E 114°09'17 2.9
2014-Sep-15 04:33N 22°34' E 114°15'0 0.0
2014-Sep-15 03:33N 22°34' E 114°15'0 0.0
2014-Sep-15 02:33N 22°34' E 114°15'0 0.0
2014-Sep-14 22:15N 22°34' E 114°15'17 1.5
2014-Sep-14 11:11N 22°17' E 114°13'4 0.1
2014-Sep-13 09:19N 22°18' E 114°09'4 5.5
2014-Sep-13 08:33N 22°17' E 114°14'17 3.3
2014-Sep-13 03:32N 22°34' E 114°15'0 0.0
2014-Sep-13 02:25N 22°34' E 114°15'0 0.0
2014-Sep-13 01:23N 22°34' E 114°15'0 0.0
2014-Sep-12 22:18N 22°34' E 114°15'17 2.8
2014-Sep-12 16:25N 22°17' E 114°13'  

Dump ship's entire track history